Time;durP1;ratioP1;P1;durP2;ratioP2;P2;SDS_P1;SDS_P2;PMS_P1;PMS_P2;Temp;Humidity;BMP_temperature;BMP_pressure;BME280_temperature;BME280_humidity;BME280_pressure;Samples;Min_cycle;Max_cycle;Signal;HPM_P1;HPM_P2
2021/01/13 06:27:50;;;;;;;19.23;11.05;;;-1.10;82.60;;;;;;4980994;28;20474;-64
2021/01/13 06:30:25;;;;;;;20.02;12.38;;;-1.20;83.50;;;;;;4992031;28;20391;-65
2021/01/13 06:33:05;;;;;;;20.10;12.50;;;-1.10;83.60;;;;;;4990169;28;20412;-66
2021/01/13 06:35:43;;;;;;;22.90;14.82;;;-1.10;84.40;;;;;;4989513;28;20487;-64
2021/01/13 06:38:27;;;;;;;21.25;13.75;;;-1.10;85.10;;;;;;4990504;28;20475;-70
2021/01/13 06:41:01;;;;;;;20.50;13.35;;;-1.00;85.70;;;;;;4992887;28;20056;-65
2021/01/13 06:43:28;;;;;;;19.67;12.90;;;-1.00;86.20;;;;;;4991194;28;20479;-68
2021/01/13 06:45:57;;;;;;;17.75;11.80;;;-0.90;86.50;;;;;;5014625;28;20058;-72
2021/01/13 06:48:29;;;;;;;17.42;11.55;;;-0.90;86.90;;;;;;4994686;28;20336;-70
2021/01/13 06:50:56;;;;;;;15.68;10.25;;;-0.80;86.90;;;;;;4974093;28;20444;-68
2021/01/13 06:53:46;;;;;;;12.65;8.80;;;-0.80;87.10;;;;;;4995363;28;20025;-71
2021/01/13 06:56:16;;;;;;;17.33;10.88;;;-0.70;87.10;;;;;;4992113;28;20161;-66
2021/01/13 06:59:01;;;;;;;16.85;11.25;;;-0.60;87.20;;;;;;4991335;28;20127;-71
2021/01/13 07:01:27;;;;;;;17.58;11.48;;;-0.60;87.00;;;;;;4986829;28;20470;-68
2021/01/13 07:07:30;;;;;;;17.83;10.88;;;-0.50;87.20;;;;;;4976744;28;20460;-70
2021/01/13 07:10:21;;;;;;;15.18;10.18;;;-0.40;87.00;;;;;;4978597;28;20169;-71
2021/01/13 07:13:18;;;;;;;17.15;11.88;;;-0.40;87.20;;;;;;5013039;28;20029;-72
2021/01/13 07:19:13;;;;;;;13.27;9.43;;;-0.20;86.70;;;;;;4944482;28;20534;-73
2021/01/13 07:22:05;;;;;;;12.77;9.68;;;-0.20;87.00;;;;;;4943428;28;20357;-70
2021/01/13 07:24:31;;;;;;;11.63;8.05;;;-0.20;86.70;;;;;;4942677;28;20069;-75
2021/01/13 07:26:58;;;;;;;13.25;9.68;;;0.00;87.30;;;;;;4979754;28;20471;-72
2021/01/13 07:29:29;;;;;;;13.35;10.15;;;0.00;87.10;;;;;;4992181;28;20032;-69
2021/01/13 07:31:57;;;;;;;15.88;11.20;;;0.00;87.10;;;;;;4984184;28;20471;-69
2021/01/13 07:34:31;;;;;;;15.50;10.52;;;0.10;87.10;;;;;;4995134;28;20028;-71
2021/01/13 07:37:01;;;;;;;12.90;8.82;;;0.20;87.10;;;;;;4989217;28;20470;-71
2021/01/13 07:40:20;;;;;;;12.65;9.43;;;0.30;87.10;;;;;;4982162;28;20387;-70
2021/01/13 07:42:47;;;;;;;11.55;8.82;;;0.40;86.50;;;;;;4980411;28;20056;-68
2021/01/13 07:45:19;;;;;;;11.65;7.88;;;0.50;86.80;;;;;;4975444;28;20401;-69
2021/01/13 07:47:57;;;;;;;11.82;8.93;;;0.50;86.70;;;;;;4974310;28;20312;-72
2021/01/13 07:50:24;;;;;;;13.45;9.82;;;0.60;86.40;;;;;;4981408;28;20542;-75
2021/01/13 07:52:53;;;;;;;14.63;10.65;;;0.60;86.60;;;;;;4979706;28;20506;-69
2021/01/13 07:55:19;;;;;;;16.67;12.10;;;0.60;86.30;;;;;;4978256;28;20556;-70
2021/01/13 07:58:01;;;;;;;17.83;12.00;;;0.70;86.40;;;;;;4981507;28;20557;-73
2021/01/13 08:00:31;;;;;;;15.35;10.68;;;0.70;86.20;;;;;;4980250;28;20467;-68
2021/01/13 08:03:47;;;;;;;14.30;9.57;;;0.80;86.50;;;;;;4978841;28;20549;-73
2021/01/13 08:06:29;;;;;;;16.65;11.80;;;0.80;85.80;;;;;;5004299;28;20489;-70
2021/01/13 08:09:06;;;;;;;15.15;10.90;;;0.90;86.40;;;;;;4972811;28;20090;-72
2021/01/13 08:11:59;;;;;;;12.25;8.77;;;1.00;86.40;;;;;;4950120;28;20057;-71
2021/01/13 08:14:43;;;;;;;10.07;7.32;;;1.20;85.80;;;;;;4933592;28;20446;-69
2021/01/13 08:17:31;;;;;;;9.80;7.38;;;1.30;85.90;;;;;;4935670;28;20414;-70
2021/01/13 08:20:42;;;;;;;8.98;7.22;;;1.40;86.00;;;;;;4933093;28;20602;-69
2021/01/13 08:23:18;;;;;;;9.70;7.55;;;1.40;85.40;;;;;;4924970;28;20437;-68
2021/01/13 08:25:58;;;;;;;10.15;7.85;;;1.40;85.90;;;;;;4938596;28;20496;-67
2021/01/13 08:28:25;;;;;;;9.38;7.60;;;1.40;85.50;;;;;;4934795;28;20315;-67
2021/01/13 08:30:52;;;;;;;11.38;8.20;;;1.40;85.70;;;;;;4936587;28;20220;-69
2021/01/13 08:33:21;;;;;;;10.55;8.15;;;1.50;85.60;;;;;;4934958;28;20022;-68
2021/01/13 08:36:01;;;;;;;11.32;8.13;;;1.50;85.90;;;;;;4938268;28;20457;-69
2021/01/13 08:38:27;;;;;;;12.85;8.70;;;1.60;85.80;;;;;;4938117;28;20376;-70
2021/01/13 08:40:54;;;;;;;16.27;10.55;;;1.70;85.80;;;;;;4942149;28;20345;-69
2021/01/13 08:43:22;;;;;;;13.07;8.77;;;1.70;85.90;;;;;;4940055;28;20033;-68
2021/01/13 08:45:51;;;;;;;14.45;10.27;;;1.80;85.80;;;;;;4935728;28;20485;-68
2021/01/13 08:48:22;;;;;;;13.70;8.95;;;1.80;85.00;;;;;;4937090;28;20380;-70
2021/01/13 08:51:06;;;;;;;12.68;9.27;;;1.80;85.00;;;;;;4938075;28;20438;-70
2021/01/13 08:53:32;;;;;;;11.73;8.30;;;1.80;84.10;;;;;;4953029;28;20630;-71
2021/01/13 08:56:01;;;;;;;10.18;7.25;;;1.90;84.40;;;;;;4937062;28;20358;-67
2021/01/13 08:58:35;;;;;;;9.35;7.18;;;1.90;84.60;;;;;;4937165;28;20472;-72
2021/01/13 09:01:05;;;;;;;8.77;7.05;;;2.00;84.80;;;;;;4938643;28;20368;-81
2021/01/13 09:03:37;;;;;;;7.88;6.60;;;2.00;84.20;;;;;;4937519;28;20425;-71
2021/01/13 09:06:23;;;;;;;7.93;6.63;;;1.90;83.90;;;;;;4937339;28;20353;-75
2021/01/13 09:08:53;;;;;;;8.43;6.78;;;1.90;83.30;;;;;;4957836;28;20360;-67
2021/01/13 09:11:34;;;;;;;13.27;8.30;;;1.80;83.50;;;;;;4939617;28;20738;-69
2021/01/13 09:14:22;;;;;;;11.25;7.78;;;1.80;83.90;;;;;;4938907;28;20650;-70
2021/01/13 09:16:55;;;;;;;13.35;9.52;;;1.80;83.90;;;;;;4936873;28;20408;-70
2021/01/13 09:19:30;;;;;;;12.77;8.63;;;1.90;84.70;;;;;;4937978;28;20592;-70
2021/01/13 09:22:09;;;;;;;12.68;8.35;;;1.90;84.20;;;;;;4936438;28;20452;-69
2021/01/13 09:24:40;;;;;;;11.55;8.07;;;2.00;84.20;;;;;;4935713;28;21033;-68
2021/01/13 09:27:08;;;;;;;12.80;9.10;;;2.00;84.50;;;;;;4939038;28;20366;-70
2021/01/13 09:29:47;;;;;;;11.75;8.70;;;2.20;84.50;;;;;;4951607;28;20022;-70
2021/01/13 09:32:15;;;;;;;10.88;8.57;;;2.20;83.70;;;;;;4935517;28;20044;-66
2021/01/13 09:34:42;;;;;;;12.43;9.50;;;2.30;84.60;;;;;;4937792;28;20575;-69
2021/01/13 09:37:08;;;;;;;11.40;8.27;;;2.50;84.70;;;;;;4934998;28;20372;-70
2021/01/13 09:39:40;;;;;;;9.75;8.00;;;2.60;84.40;;;;;;4942926;28;20022;-74
2021/01/13 09:42:07;;;;;;;10.48;7.28;;;2.70;83.90;;;;;;4933016;28;20484;-67
2021/01/13 09:44:37;;;;;;;7.07;5.97;;;2.70;84.10;;;;;;4928950;28;20381;-68
2021/01/13 09:47:37;;;;;;;7.65;6.10;;;2.80;83.10;;;;;;4931684;28;20460;-72
2021/01/13 09:50:05;;;;;;;8.90;6.10;;;2.70;81.80;;;;;;4942771;28;20349;-68
2021/01/13 09:52:39;;;;;;;6.78;5.90;;;2.80;83.20;;;;;;4937025;28;20746;-69
2021/01/13 09:55:08;;;;;;;7.97;6.20;;;2.70;83.20;;;;;;4933654;28;20642;-71
2021/01/13 09:57:35;;;;;;;9.50;6.90;;;2.70;83.40;;;;;;4934355;28;20445;-70
2021/01/13 10:00:12;;;;;;;9.95;8.05;;;2.70;83.00;;;;;;4935792;28;20468;-67
2021/01/13 10:02:39;;;;;;;11.60;8.88;;;2.70;83.10;;;;;;4938877;28;20030;-68
2021/01/13 10:05:15;;;;;;;14.45;9.43;;;2.80;82.90;;;;;;4937114;28;20507;-69
2021/01/13 10:10:33;;;;;;;12.45;9.55;;;2.80;82.20;;;;;;4930299;28;20380;-68
2021/01/13 10:13:07;;;;;;;11.48;8.73;;;2.70;82.00;;;;;;4932815;28;20457;-67
2021/01/13 10:15:36;;;;;;;11.40;8.20;;;2.60;82.00;;;;;;4938748;28;20359;-67
2021/01/13 10:18:06;;;;;;;9.40;7.68;;;2.60;81.80;;;;;;4930993;28;20056;-70
2021/01/13 10:31:23;;;;;;;8.10;6.30;;;2.20;80.10;;;;;;4974562;28;20120;-69
2021/01/13 10:34:13;;;;;;;8.40;6.25;;;2.10;80.80;;;;;;4978674;28;20644;-70
2021/01/13 10:36:49;;;;;;;7.78;5.88;;;2.00;80.30;;;;;;4957970;28;20452;-73
2021/01/13 10:39:28;;;;;;;6.15;5.40;;;2.00;80.90;;;;;;4961929;28;20024;-72
2021/01/13 10:42:05;;;;;;;8.18;5.70;;;1.90;80.90;;;;;;4964079;28;20094;-74
2021/01/13 10:44:33;;;;;;;6.82;5.63;;;1.90;81.10;;;;;;4980431;28;20454;-73
2021/01/13 10:47:12;;;;;;;8.70;6.35;;;1.80;80.40;;;;;;4956958;28;20250;-72
2021/01/13 10:49:43;;;;;;;8.68;6.85;;;1.70;80.40;;;;;;4981673;28;20056;-74
2021/01/13 10:52:17;;;;;;;9.45;6.90;;;1.60;81.30;;;;;;4961947;28;20340;-74
2021/01/13 10:54:47;;;;;;;8.80;6.68;;;1.60;81.10;;;;;;4963675;28;20391;-69
2021/01/13 10:57:17;;;;;;;8.18;6.50;;;1.60;81.20;;;;;;4980570;28;20809;-72
2021/01/13 10:59:43;;;;;;;8.07;5.68;;;1.60;81.00;;;;;;4959346;28;20353;-72
2021/01/13 11:02:11;;;;;;;7.88;6.38;;;1.60;81.00;;;;;;4961352;28;20486;-72
2021/01/13 11:04:44;;;;;;;8.80;6.03;;;1.60;80.80;;;;;;4963527;28;20332;-73
2021/01/13 11:07:20;;;;;;;6.50;5.32;;;1.60;80.80;;;;;;4964031;28;20434;-74
2021/01/13 11:09:52;;;;;;;7.65;5.70;;;1.60;80.60;;;;;;4962106;28;20466;-76
2021/01/13 11:12:20;;;;;;;9.23;5.40;;;1.60;80.60;;;;;;4978896;28;20463;-76
2021/01/13 11:14:49;;;;;;;7.80;5.43;;;1.50;80.60;;;;;;4966702;28;20064;-77
2021/01/13 11:17:30;;;;;;;8.57;5.80;;;1.40;80.50;;;;;;4983702;28;20401;-74
2021/01/13 11:20:00;;;;;;;8.13;6.43;;;1.30;80.30;;;;;;4985095;28;20064;-75
2021/01/13 11:22:45;;;;;;;8.05;5.78;;;1.30;80.60;;;;;;4962787;28;20037;-73
2021/01/13 11:25:19;;;;;;;6.32;4.85;;;1.20;80.50;;;;;;4961449;28;20498;-78
2021/01/13 11:27:52;;;;;;;6.88;5.35;;;1.10;80.30;;;;;;4971617;28;20452;-76
2021/01/13 11:30:19;;;;;;;7.75;5.32;;;1.10;80.60;;;;;;4980884;28;20490;-73
2021/01/13 11:32:50;;;;;;;7.28;5.35;;;1.00;80.30;;;;;;4961762;28;20242;-72
2021/01/13 11:35:30;;;;;;;7.30;5.60;;;1.00;80.40;;;;;;4993571;28;20549;-73
2021/01/13 11:38:16;;;;;;;9.18;6.45;;;1.00;80.50;;;;;;4983927;28;20521;-73
2021/01/13 11:41:32;;;;;;;8.90;6.00;;;1.00;80.50;;;;;;4980446;28;20452;-75
2021/01/13 11:44:23;;;;;;;7.13;5.05;;;1.00;80.40;;;;;;4968774;28;20541;-79
2021/01/13 11:47:18;;;;;;;6.80;4.82;;;0.90;80.00;;;;;;4968003;28;20507;-76
2021/01/13 11:49:54;;;;;;;7.75;5.07;;;0.90;80.40;;;;;;4957645;28;20527;-75
2021/01/13 11:52:23;;;;;;;7.07;5.15;;;0.80;80.50;;;;;;4971883;28;20126;-76
2021/01/13 11:54:53;;;;;;;9.57;5.45;;;0.80;80.60;;;;;;4971931;28;20037;-76
2021/01/13 11:57:27;;;;;;;6.78;4.50;;;0.70;80.30;;;;;;5002129;28;20575;-70
2021/01/13 12:00:17;;;;;;;5.80;4.72;;;0.60;80.30;;;;;;4981761;28;20527;-75
2021/01/13 12:05:45;;;;;;;5.15;4.57;;;0.50;80.30;;;;;;4977924;28;20478;-77
2021/01/13 12:08:15;;;;;;;5.30;4.20;;;0.40;79.70;;;;;;4981752;28;20391;-72
2021/01/13 12:10:48;;;;;;;5.78;4.10;;;0.30;80.10;;;;;;4993655;28;20472;-75
2021/01/13 12:13:30;;;;;;;5.35;4.18;;;0.20;80.30;;;;;;4982949;28;20357;-74
2021/01/13 12:16:08;;;;;;;5.05;4.35;;;0.20;80.50;;;;;;4980587;28;20517;-74
2021/01/13 12:18:54;;;;;;;7.38;4.82;;;0.20;81.00;;;;;;4967183;28;20040;-73
2021/01/13 12:21:29;;;;;;;7.05;5.18;;;0.20;80.90;;;;;;4984062;28;20359;-75
2021/01/13 12:24:11;;;;;;;6.22;4.57;;;0.20;80.50;;;;;;4964947;28;20463;-75
2021/01/13 12:26:48;;;;;;;5.57;4.32;;;0.20;80.70;;;;;;4984018;28;20446;-76
2021/01/13 12:29:26;;;;;;;5.82;4.93;;;0.20;80.70;;;;;;4966480;28;20448;-74
2021/01/13 12:32:33;;;;;;;6.88;4.65;;;0.20;80.80;;;;;;4986286;28;20110;-75
2021/01/13 12:35:02;;;;;;;6.25;4.38;;;0.20;80.50;;;;;;4895176;28;20457;-69
2021/01/13 12:37:30;;;;;;;6.97;4.75;;;0.10;80.50;;;;;;4901521;28;20347;-70
2021/01/13 12:40:00;;;;;;;6.38;4.55;;;0.10;80.80;;;;;;4930183;28;20361;-73
2021/01/13 12:42:34;;;;;;;6.43;4.88;;;0.00;80.50;;;;;;4963470;28;20484;-69
2021/01/13 12:45:02;;;;;;;6.88;5.13;;;0.00;80.30;;;;;;4992958;28;20527;-70
2021/01/13 12:47:30;;;;;;;6.20;4.13;;;0.00;80.90;;;;;;4961018;28;20459;-71
2021/01/13 12:49:59;;;;;;;6.65;5.00;;;0.00;81.20;;;;;;4964665;28;20447;-71
2021/01/13 12:52:32;;;;;;;5.05;4.47;;;0.00;81.20;;;;;;4981908;28;20468;-71
2021/01/13 12:54:58;;;;;;;7.28;5.35;;;0.00;81.40;;;;;;4963192;28;20549;-73
2021/01/13 12:57:26;;;;;;;6.53;5.35;;;0.00;81.20;;;;;;4979895;28;20575;-70
2021/01/13 12:59:59;;;;;;;5.53;4.53;;;-0.10;81.10;;;;;;4963787;28;20114;-70
2021/01/13 13:02:29;;;;;;;5.43;4.30;;;-0.10;81.40;;;;;;4963780;28;20367;-71
